createdAt,value
2018-12-30T00:01:13.983Z,5.70
2018-12-30T00:03:42.175Z,5.50
2018-12-30T00:06:10.415Z,5.30
2018-12-30T00:08:38.716Z,5.60
2018-12-30T00:11:06.702Z,5.67
2018-12-30T00:13:34.723Z,5.27
2018-12-30T00:16:02.999Z,5.33
2018-12-30T00:18:30.977Z,4.90
2018-12-30T00:20:58.988Z,5.57
2018-12-30T00:23:27.045Z,5.67
2018-12-30T00:25:55.193Z,5.70
2018-12-30T00:28:23.188Z,5.60
2018-12-30T00:30:51.168Z,5.17
2018-12-30T00:33:19.165Z,5.47
2018-12-30T00:35:47.431Z,5.77
2018-12-30T00:38:15.424Z,5.63
2018-12-30T00:40:43.424Z,5.40
2018-12-30T00:43:11.430Z,5.70
2018-12-30T00:45:39.434Z,5.20
2018-12-30T00:48:07.404Z,5.30
2018-12-30T00:50:35.651Z,5.67
2018-12-30T00:53:03.651Z,5.20
2018-12-30T00:55:31.615Z,5.30
2018-12-30T00:57:59.599Z,5.20
2018-12-30T01:00:27.583Z,5.80
2018-12-30T01:02:55.668Z,5.23
2018-12-30T01:05:23.962Z,5.63
2018-12-30T01:07:51.921Z,5.30
2018-12-30T01:10:20.016Z,5.30
2018-12-30T01:12:48.008Z,4.83
2018-12-30T01:15:15.992Z,5.63
2018-12-30T01:17:44.009Z,6.03
2018-12-30T01:20:12.300Z,5.70
2018-12-30T01:22:40.351Z,5.10
2018-12-30T01:25:08.371Z,5.60
2018-12-30T01:27:36.372Z,4.87
2018-12-30T01:30:04.795Z,4.97
2018-12-30T01:32:32.779Z,5.13
2018-12-30T01:35:01.016Z,5.40
2018-12-30T01:37:29.067Z,4.97
2018-12-30T01:39:57.059Z,4.87
2018-12-30T01:42:25.059Z,5.30
2018-12-30T01:44:53.035Z,4.83
2018-12-30T01:47:21.009Z,5.27
2018-12-30T01:49:49.028Z,4.80
2018-12-30T01:52:17.019Z,4.80
2018-12-30T01:54:44.999Z,4.87
2018-12-30T01:57:13.013Z,4.87
2018-12-30T01:59:41.084Z,5.30
2018-12-30T02:02:09.319Z,5.03
2018-12-30T02:04:37.279Z,5.07
2018-12-30T02:07:05.267Z,5.17
2018-12-30T02:09:33.268Z,4.50
2018-12-30T02:12:01.254Z,5.10
2018-12-30T02:14:29.243Z,4.63
2018-12-30T02:16:57.268Z,5.20
2018-12-30T02:19:25.386Z,4.77
2018-12-30T02:21:53.444Z,4.97
2018-12-30T02:24:21.442Z,5.20
2018-12-30T02:26:49.538Z,4.87
2018-12-30T02:29:17.743Z,4.60
2018-12-30T02:31:45.676Z,4.80
2018-12-30T02:34:13.671Z,5.10
2018-12-30T02:36:41.676Z,4.93
2018-12-30T02:39:09.697Z,5.40
2018-12-30T02:41:37.659Z,5.00
2018-12-30T02:44:05.627Z,4.63
2018-12-30T02:46:33.629Z,5.30
2018-12-30T02:49:01.631Z,5.60
2018-12-30T02:51:29.629Z,5.20
2018-12-30T02:53:57.623Z,5.70
2018-12-30T02:56:25.621Z,4.93
2018-12-30T02:58:53.588Z,5.07
2018-12-30T03:01:21.510Z,4.73
2018-12-30T03:03:49.551Z,5.17
2018-12-30T03:06:17.515Z,4.67
2018-12-30T03:08:45.589Z,4.70
2018-12-30T03:11:13.578Z,4.83
2018-12-30T03:13:41.576Z,5.13
2018-12-30T03:16:09.485Z,5.00
2018-12-30T03:18:37.560Z,4.70
2018-12-30T03:21:05.756Z,4.73
2018-12-30T03:23:33.746Z,5.03
2018-12-30T03:26:01.767Z,4.63
2018-12-30T03:28:29.664Z,4.97
2018-12-30T03:30:57.684Z,5.07
2018-12-30T03:33:25.680Z,4.70
2018-12-30T03:35:53.595Z,4.83
2018-12-30T03:38:21.485Z,4.20
2018-12-30T03:40:49.420Z,4.50
2018-12-30T03:43:17.323Z,4.60
2018-12-30T03:45:45.328Z,4.57
2018-12-30T03:48:13.247Z,4.10
2018-12-30T03:50:41.154Z,4.37
2018-12-30T03:53:09.140Z,4.67
2018-12-30T03:55:37.050Z,4.50
2018-12-30T03:58:05.069Z,4.07
2018-12-30T04:00:33.089Z,4.53
2018-12-30T04:03:01.000Z,4.17
2018-12-30T04:05:28.932Z,4.20
2018-12-30T04:07:56.931Z,4.30
2018-12-30T04:10:24.872Z,4.60
2018-12-30T04:12:52.803Z,4.40
2018-12-30T04:15:20.840Z,4.73
2018-12-30T04:17:48.745Z,4.60
2018-12-30T04:20:16.741Z,4.53
2018-12-30T04:22:44.715Z,4.23
2018-12-30T04:25:12.716Z,4.47
2018-12-30T04:27:40.607Z,4.40
2018-12-30T04:30:08.526Z,4.90
2018-12-30T04:32:36.451Z,5.00
2018-12-30T04:35:04.516Z,4.40
2018-12-30T04:37:32.417Z,4.77
2018-12-30T04:40:00.339Z,4.43
2018-12-30T04:42:28.327Z,4.20
2018-12-30T04:44:56.418Z,4.60
2018-12-30T04:47:24.394Z,4.43
2018-12-30T04:49:52.400Z,4.40
2018-12-30T04:52:25.568Z,4.00
2018-12-30T04:54:49.912Z,4.20
2018-12-30T04:57:17.872Z,4.33
2018-12-30T04:59:45.792Z,4.20
2018-12-30T05:02:13.725Z,4.20
2018-12-30T05:04:41.690Z,4.10
2018-12-30T05:07:09.803Z,4.10
2018-12-30T05:09:37.801Z,4.43
2018-12-30T05:12:05.849Z,4.33
2018-12-30T05:14:33.835Z,4.13
2018-12-30T05:17:01.839Z,4.57
2018-12-30T05:19:29.848Z,4.43
2018-12-30T05:21:57.836Z,3.90
2018-12-30T05:24:25.776Z,4.50
2018-12-30T05:26:53.753Z,4.57
2018-12-30T05:29:21.715Z,4.03
2018-12-30T05:31:49.635Z,4.23
2018-12-30T05:34:17.603Z,4.17
2018-12-30T05:36:45.521Z,4.70
2018-12-30T05:39:13.552Z,4.37
2018-12-30T05:41:41.521Z,4.03
2018-12-30T05:44:09.496Z,4.37
2018-12-30T05:46:37.523Z,4.60
2018-12-30T05:49:05.449Z,3.90
2018-12-30T05:51:33.359Z,4.60
2018-12-30T05:54:01.308Z,4.47
2018-12-30T05:56:29.227Z,4.60
2018-12-30T05:58:57.246Z,4.77
2018-12-30T06:01:25.236Z,4.50
2018-12-30T06:03:53.163Z,4.57
2018-12-30T06:06:21.152Z,4.87
2018-12-30T06:08:49.067Z,4.50
2018-12-30T06:11:17.020Z,4.37
2018-12-30T06:13:45.019Z,4.63
2018-12-30T06:16:13.055Z,4.53
2018-12-30T06:18:41.105Z,4.33
2018-12-30T06:21:09.019Z,4.20
2018-12-30T06:23:36.959Z,4.40
2018-12-30T06:26:04.985Z,4.47
2018-12-30T06:28:32.953Z,4.73
2018-12-30T06:31:00.959Z,4.37
2018-12-30T06:33:28.932Z,4.50
2018-12-30T06:35:56.884Z,4.97
2018-12-30T06:38:24.897Z,4.50
2018-12-30T06:40:52.844Z,4.67
2018-12-30T06:43:20.742Z,4.30
2018-12-30T06:45:48.717Z,4.10
2018-12-30T06:48:16.759Z,4.50
2018-12-30T06:50:44.706Z,3.73
2018-12-30T06:53:12.708Z,4.13
2018-12-30T06:55:40.620Z,4.10
2018-12-30T06:58:08.545Z,4.10
2018-12-30T07:00:36.453Z,4.27
2018-12-30T07:03:04.456Z,4.10
2018-12-30T07:05:32.432Z,3.70
2018-12-30T07:08:00.408Z,3.40
2018-12-30T07:10:28.426Z,3.40
2018-12-30T07:12:56.403Z,3.30
2018-12-30T07:15:24.509Z,3.17
2018-12-30T07:17:52.471Z,2.87
2018-12-30T07:20:20.391Z,3.40
2018-12-30T07:22:48.308Z,5.00
2018-12-30T07:25:16.246Z,6.07
2018-12-30T07:27:44.219Z,5.90
2018-12-30T07:30:12.216Z,4.07
2018-12-30T07:32:40.116Z,3.73
2018-12-30T07:35:08.124Z,3.93
2018-12-30T07:37:36.108Z,3.80
2018-12-30T07:40:04.092Z,3.57
2018-12-30T07:42:32.111Z,3.67
2018-12-30T07:45:00.090Z,3.90
2018-12-30T07:47:28.150Z,3.83
2018-12-30T07:49:56.192Z,3.60
2018-12-30T07:52:24.183Z,3.60
2018-12-30T07:54:52.114Z,3.90
2018-12-30T07:57:20.124Z,3.50
2018-12-30T07:59:48.184Z,3.77
2018-12-30T08:02:16.325Z,3.27
2018-12-30T08:04:44.326Z,3.60
2018-12-30T08:07:12.255Z,3.73
2018-12-30T08:09:40.233Z,4.00
2018-12-30T08:12:08.270Z,3.93
2018-12-30T08:14:36.176Z,3.53
2018-12-30T08:17:04.174Z,3.67
2018-12-30T08:19:32.152Z,3.63
2018-12-30T08:22:00.084Z,3.30
2018-12-30T08:24:27.999Z,3.50
2018-12-30T08:26:55.908Z,3.50
2018-12-30T08:29:27.763Z,3.30
2018-12-30T08:31:55.763Z,3.80
2018-12-30T08:34:23.669Z,3.57
2018-12-30T08:36:51.672Z,3.50
2018-12-30T08:39:19.612Z,3.43
2018-12-30T08:41:47.614Z,3.97
2018-12-30T08:44:15.532Z,3.40
2018-12-30T08:46:43.444Z,3.90
2018-12-30T08:49:11.368Z,3.60
2018-12-30T08:51:39.280Z,3.73
2018-12-30T08:54:07.282Z,3.30
2018-12-30T08:56:35.269Z,3.53
2018-12-30T08:59:03.280Z,3.40
2018-12-30T09:01:31.305Z,3.40
2018-12-30T09:03:59.311Z,3.57
2018-12-30T09:06:27.320Z,3.43
2018-12-30T09:08:55.238Z,3.40
2018-12-30T09:11:23.219Z,3.40
2018-12-30T09:13:51.175Z,3.60
2018-12-30T09:16:19.079Z,3.20
2018-12-30T09:18:47.018Z,3.33
2018-12-30T09:21:15.044Z,3.13
2018-12-30T09:23:43.076Z,3.20
2018-12-30T09:26:10.974Z,3.63
2018-12-30T09:28:38.976Z,3.23
2018-12-30T09:31:07.040Z,3.30
2018-12-30T09:33:35.081Z,2.90
2018-12-30T09:36:03.104Z,3.03
2018-12-30T09:38:31.062Z,3.40
2018-12-30T09:40:59.033Z,2.97
2018-12-30T09:43:27.067Z,3.00
2018-12-30T09:45:55.064Z,3.20
2018-12-30T09:48:22.981Z,2.83
2018-12-30T09:50:50.899Z,3.20
2018-12-30T09:53:18.876Z,3.10
2018-12-30T09:55:46.783Z,3.10
2018-12-30T09:58:14.676Z,2.73
2018-12-30T10:00:42.708Z,3.40
2018-12-30T10:03:10.616Z,2.60
2018-12-30T10:05:38.587Z,2.93
2018-12-30T10:08:06.659Z,2.63
2018-12-30T10:10:34.594Z,2.80
2018-12-30T10:13:03.080Z,3.13
2018-12-30T10:15:30.995Z,2.67
2018-12-30T10:17:58.911Z,2.90
2018-12-30T10:20:26.926Z,3.20
2018-12-30T10:22:58.792Z,3.10
2018-12-30T10:25:24.556Z,2.70
2018-12-30T10:27:52.568Z,2.77
2018-12-30T10:30:20.484Z,2.50
2018-12-30T10:32:48.455Z,2.50
2018-12-30T10:35:16.480Z,2.70
2018-12-30T10:37:44.397Z,2.73
2018-12-30T10:40:12.444Z,2.37
2018-12-30T10:42:40.353Z,2.77
2018-12-30T10:45:08.440Z,2.40
2018-12-30T10:47:36.443Z,2.70
2018-12-30T10:50:04.451Z,2.70
2018-12-30T10:52:32.470Z,2.40
2018-12-30T10:55:00.448Z,2.30
2018-12-30T10:57:28.386Z,2.17
2018-12-30T10:59:56.341Z,2.30
2018-12-30T11:02:24.262Z,2.20
2018-12-30T11:04:52.257Z,2.20
2018-12-30T11:07:20.210Z,2.37
2018-12-30T11:09:48.105Z,2.20
2018-12-30T11:12:16.128Z,2.27
2018-12-30T11:14:44.035Z,2.40
2018-12-30T11:17:11.980Z,2.10
2018-12-30T11:19:39.907Z,2.07
2018-12-30T11:22:08.036Z,2.43
2018-12-30T11:24:35.938Z,2.33
2018-12-30T11:27:04.012Z,2.10
2018-12-30T11:29:31.987Z,2.57
2018-12-30T11:32:00.066Z,2.83
2018-12-30T11:34:28.084Z,2.70
2018-12-30T11:36:56.024Z,2.57
2018-12-30T11:39:24.216Z,2.83
2018-12-30T11:41:52.242Z,3.40
2018-12-30T11:44:20.200Z,2.63
2018-12-30T11:46:48.217Z,2.57
2018-12-30T11:49:16.117Z,2.30
2018-12-30T11:51:44.150Z,2.40
2018-12-30T11:54:16.468Z,2.50
2018-12-30T11:56:41.851Z,2.17
2018-12-30T11:59:09.873Z,2.43
2018-12-30T12:01:37.923Z,2.10
2018-12-30T12:04:05.914Z,2.40
2018-12-30T12:06:34.914Z,2.30
2018-12-30T12:09:03.078Z,2.50
2018-12-30T12:11:31.082Z,2.97
2018-12-30T12:13:59.027Z,2.77
2018-12-30T12:16:26.969Z,2.60
2018-12-30T12:18:55.068Z,3.17
2018-12-30T12:21:23.095Z,2.60
2018-12-30T12:23:51.089Z,2.83
2018-12-30T12:26:19.088Z,2.33
2018-12-30T12:28:47.011Z,2.30
2018-12-30T12:31:14.997Z,2.20
2018-12-30T12:33:42.917Z,2.20
2018-12-30T12:36:10.859Z,2.30
2018-12-30T12:38:38.791Z,2.20
2018-12-30T12:41:06.748Z,1.80
2018-12-30T12:43:34.712Z,2.07
2018-12-30T12:46:02.640Z,2.07
2018-12-30T12:48:30.628Z,2.40
2018-12-30T12:50:58.543Z,2.10
2018-12-30T12:53:26.465Z,2.03
2018-12-30T12:55:54.520Z,2.40
2018-12-30T12:58:22.767Z,2.27
2018-12-30T13:00:50.725Z,2.00
2018-12-30T13:03:18.674Z,2.30
2018-12-30T13:05:46.657Z,2.00
2018-12-30T13:08:14.689Z,2.50
2018-12-30T13:10:42.664Z,2.20
2018-12-30T13:13:10.592Z,2.10
2018-12-30T13:15:38.587Z,2.30
2018-12-30T13:18:06.531Z,2.30
2018-12-30T13:20:34.496Z,4.30
2018-12-30T13:23:02.535Z,6.20
2018-12-30T13:25:30.463Z,6.87
2018-12-30T13:27:58.537Z,6.33
2018-12-30T13:30:26.456Z,4.60
2018-12-30T13:32:54.442Z,6.10
2018-12-30T13:35:22.856Z,5.10
2018-12-30T13:37:50.885Z,3.70
2018-12-30T13:40:20.260Z,4.47
2018-12-30T13:42:48.618Z,3.20
2018-12-30T13:45:16.608Z,2.20
2018-12-30T13:47:44.511Z,2.40
2018-12-30T13:50:12.548Z,2.07
2018-12-30T13:52:40.452Z,2.40
2018-12-30T13:55:08.393Z,3.70
2018-12-30T13:57:36.396Z,2.47
2018-12-30T14:00:04.840Z,2.67
2018-12-30T14:02:32.775Z,2.07
2018-12-30T14:05:00.795Z,2.10
2018-12-30T14:07:28.878Z,2.10
2018-12-30T14:09:56.928Z,1.80
2018-12-30T14:12:24.856Z,2.47
2018-12-30T14:14:52.822Z,2.30
2018-12-30T14:17:20.819Z,2.73
2018-12-30T14:19:48.714Z,2.50
2018-12-30T14:22:16.702Z,2.10
2018-12-30T14:24:44.629Z,2.60
2018-12-30T14:27:12.692Z,2.50
2018-12-30T14:29:40.656Z,2.30
2018-12-30T14:32:08.621Z,2.33
2018-12-30T14:34:36.529Z,2.07
2018-12-30T14:37:12.369Z,2.30
2018-12-30T14:39:40.271Z,2.50
2018-12-30T14:42:08.331Z,2.40
2018-12-30T14:44:36.340Z,2.53
2018-12-30T14:47:04.257Z,2.83
2018-12-30T14:49:32.232Z,3.03
2018-12-30T14:52:00.216Z,2.53
2018-12-30T14:54:28.200Z,2.93
2018-12-30T14:56:56.163Z,3.10
2018-12-30T14:59:24.159Z,3.73
2018-12-30T15:01:52.191Z,3.40
2018-12-30T15:04:20.100Z,3.37
2018-12-30T15:06:48.110Z,3.27
2018-12-30T15:09:16.143Z,3.30
2018-12-30T15:11:44.375Z,3.17
2018-12-30T15:14:12.386Z,2.97
2018-12-30T15:16:40.426Z,3.37
2018-12-30T15:19:08.337Z,4.10
2018-12-30T15:21:36.250Z,3.30
2018-12-30T15:24:04.235Z,3.00
2018-12-30T15:26:32.304Z,2.97
2018-12-30T15:29:00.242Z,2.50
2018-12-30T15:31:28.247Z,2.33
2018-12-30T15:33:56.267Z,2.17
2018-12-30T15:36:24.295Z,2.50
2018-12-30T15:38:52.278Z,1.93
2018-12-30T15:41:20.299Z,2.20
2018-12-30T15:43:48.313Z,1.80
2018-12-30T15:46:17.171Z,2.00
2018-12-30T15:48:45.127Z,2.20
2018-12-30T15:51:13.067Z,2.10
2018-12-30T15:53:41.101Z,2.33
2018-12-30T15:56:09.086Z,2.07
2018-12-30T15:58:37.091Z,2.20
2018-12-30T16:01:05.340Z,1.87
2018-12-30T16:03:33.306Z,2.20
2018-12-30T16:06:01.474Z,2.00
2018-12-30T16:09:08.631Z,2.13
2018-12-30T16:11:37.388Z,1.90
2018-12-30T16:14:05.547Z,1.80
2018-12-30T16:16:33.551Z,1.80
2018-12-30T16:19:01.496Z,2.10
2018-12-30T16:21:29.650Z,2.33
2018-12-30T16:23:57.660Z,2.00
2018-12-30T16:26:26.034Z,2.10
2018-12-30T16:28:54.023Z,2.00
2018-12-30T16:31:28.054Z,1.87
2018-12-30T16:33:51.728Z,2.10
2018-12-30T16:36:19.719Z,2.70
2018-12-30T16:38:47.635Z,4.00
2018-12-30T16:41:16.491Z,1.60
2018-12-30T16:43:44.439Z,2.80
2018-12-30T16:46:12.480Z,2.80
2018-12-30T16:48:40.508Z,1.47
2018-12-30T16:51:08.787Z,1.30
2018-12-30T16:53:36.781Z,1.70
2018-12-30T16:56:04.701Z,1.97
2018-12-30T16:58:33.627Z,1.57
2018-12-30T17:01:04.411Z,1.53
2018-12-30T17:03:32.399Z,1.60
2018-12-30T17:06:00.601Z,1.33
2018-12-30T17:08:28.560Z,1.70
2018-12-30T17:10:57.012Z,1.60
2018-12-30T17:13:24.938Z,1.67
2018-12-30T17:15:52.850Z,1.10
2018-12-30T17:18:21.093Z,1.00
2018-12-30T17:20:49.017Z,1.17
2018-12-30T17:23:17.024Z,1.47
2018-12-30T17:25:44.976Z,1.90
2018-12-30T17:28:13.003Z,1.37
2018-12-30T17:30:40.957Z,0.97
2018-12-30T17:33:08.897Z,1.13
2018-12-30T17:35:36.880Z,1.37
2018-12-30T17:38:04.803Z,1.90
2018-12-30T17:40:38.427Z,1.57
2018-12-30T17:43:04.024Z,1.17
2018-12-30T17:45:32.012Z,1.33
2018-12-30T17:47:59.956Z,1.53
2018-12-30T17:50:27.981Z,1.00
2018-12-30T17:52:55.932Z,1.10
2018-12-30T17:55:23.939Z,1.00
2018-12-30T17:57:51.923Z,1.10
2018-12-30T18:00:19.950Z,1.10
2018-12-30T18:02:47.958Z,1.30
2018-12-30T18:05:15.895Z,1.37
2018-12-30T18:07:43.836Z,1.40
2018-12-30T18:10:11.793Z,1.03
2018-12-30T18:12:39.796Z,1.10
2018-12-30T18:15:07.765Z,0.80
2018-12-30T18:17:41.320Z,0.87
2018-12-30T18:20:05.485Z,0.90
2018-12-30T18:22:33.482Z,0.73
2018-12-30T18:25:01.533Z,0.73
2018-12-30T18:27:29.526Z,0.97
2018-12-30T18:29:57.563Z,0.80
2018-12-30T18:32:25.521Z,0.90
2018-12-30T18:34:53.704Z,0.83
2018-12-30T18:37:21.629Z,1.00
2018-12-30T18:39:49.567Z,1.00
2018-12-30T18:42:17.479Z,1.03
2018-12-30T18:44:45.669Z,1.00
2018-12-30T18:47:13.664Z,1.27
2018-12-30T18:49:41.688Z,0.90
2018-12-30T18:52:09.596Z,1.07
2018-12-30T18:54:37.599Z,1.10
2018-12-30T18:57:05.540Z,1.03
2018-12-30T18:59:33.641Z,1.20
2018-12-30T19:02:05.738Z,1.53
2018-12-30T19:04:33.736Z,1.30
2018-12-30T19:07:01.732Z,2.17
2018-12-30T19:09:29.671Z,2.10
2018-12-30T19:11:57.682Z,2.07
2018-12-30T19:14:25.593Z,1.60
2018-12-30T19:16:53.581Z,1.57
2018-12-30T19:19:21.578Z,1.37
2018-12-30T19:21:49.514Z,1.40
2018-12-30T19:24:17.451Z,1.20
2018-12-30T19:26:45.895Z,1.60
2018-12-30T19:29:13.843Z,1.40
2018-12-30T19:31:41.832Z,1.30
2018-12-30T19:34:09.761Z,1.60
2018-12-30T19:36:37.762Z,1.50
2018-12-30T19:39:06.566Z,1.50
2018-12-30T19:41:34.603Z,1.40
2018-12-30T19:44:04.415Z,1.17
2018-12-30T19:46:32.374Z,1.30
2018-12-30T19:49:00.491Z,1.27
2018-12-30T19:51:28.491Z,1.30
2018-12-30T19:53:56.476Z,1.53
2018-12-30T19:56:24.422Z,1.10
2018-12-30T19:58:52.457Z,1.70
2018-12-30T20:01:20.462Z,3.17
2018-12-30T20:03:48.383Z,8.00
2018-12-30T20:06:16.439Z,4.50
2018-12-30T20:08:44.449Z,5.20
2018-12-30T20:11:12.477Z,3.03
2018-12-30T20:13:40.532Z,2.37
2018-12-30T20:16:08.476Z,1.90
2018-12-30T20:18:36.432Z,2.00
2018-12-30T20:21:04.835Z,1.80
2018-12-30T20:23:32.862Z,2.00
2018-12-30T20:26:00.988Z,1.60
2018-12-30T20:28:28.898Z,1.53
2018-12-30T20:30:56.925Z,1.40
2018-12-30T20:33:24.928Z,1.33
2018-12-30T20:35:52.916Z,1.63
2018-12-30T20:38:20.921Z,1.80
2018-12-30T20:40:48.920Z,1.53
2018-12-30T20:43:16.958Z,2.10
2018-12-30T20:45:44.860Z,1.40
2018-12-30T20:48:12.859Z,1.43
2018-12-30T20:50:40.903Z,1.30
2018-12-30T20:53:08.905Z,1.43
2018-12-30T20:55:40.578Z,1.30
2018-12-30T20:58:08.598Z,1.50
2018-12-30T21:00:36.587Z,1.50
2018-12-30T21:03:04.581Z,1.53
2018-12-30T21:05:32.561Z,1.10
2018-12-30T21:08:00.954Z,1.40
2018-12-30T21:10:28.852Z,1.30
2018-12-30T21:12:56.780Z,1.30
2018-12-30T21:15:24.731Z,1.20
2018-12-30T21:17:52.732Z,1.30
2018-12-30T21:20:20.669Z,1.20
2018-12-30T21:22:48.706Z,2.07
2018-12-30T21:25:16.864Z,1.73
2018-12-30T21:27:44.870Z,1.93
2018-12-30T21:30:12.847Z,1.60
2018-12-30T21:32:40.801Z,2.03
2018-12-30T21:35:08.756Z,1.87
2018-12-30T21:37:36.694Z,2.27
2018-12-30T21:40:05.081Z,1.90
2018-12-30T21:42:33.052Z,1.87
2018-12-30T21:45:01.121Z,1.87
2018-12-30T21:47:29.158Z,2.10
2018-12-30T21:49:57.137Z,1.87
2018-12-30T21:52:25.108Z,2.00
2018-12-30T21:54:53.055Z,2.10
2018-12-30T21:57:21.052Z,1.60
2018-12-30T21:59:48.992Z,1.60
2018-12-30T22:02:17.036Z,1.30
2018-12-30T22:04:44.928Z,1.30
2018-12-30T22:07:12.852Z,1.37
2018-12-30T22:09:40.885Z,1.20
2018-12-30T22:12:11.836Z,1.30
2018-12-30T22:14:39.836Z,1.20
2018-12-30T22:17:07.827Z,1.23
2018-12-30T22:19:35.748Z,1.70
2018-12-30T22:22:03.768Z,1.20
2018-12-30T22:24:31.758Z,1.20
2018-12-30T22:26:59.775Z,1.27
2018-12-30T22:29:27.706Z,1.20
2018-12-30T22:31:55.683Z,1.20
2018-12-30T22:34:23.612Z,1.20
2018-12-30T22:36:51.540Z,1.23
2018-12-30T22:39:19.561Z,1.30
2018-12-30T22:41:47.520Z,1.10
2018-12-30T22:44:15.442Z,1.10
2018-12-30T22:46:43.388Z,1.20
2018-12-30T22:49:11.391Z,1.30
2018-12-30T22:51:39.357Z,1.30
2018-12-30T22:54:07.443Z,1.33
2018-12-30T22:56:35.329Z,1.40
2018-12-30T22:59:03.327Z,1.40
2018-12-30T23:01:36.012Z,1.53
2018-12-30T23:04:03.959Z,1.20
2018-12-30T23:06:31.944Z,1.50
2018-12-30T23:08:59.871Z,1.50
2018-12-30T23:11:27.892Z,1.30
2018-12-30T23:13:55.907Z,1.27
2018-12-30T23:16:23.904Z,1.17
2018-12-30T23:18:51.832Z,1.23
2018-12-30T23:21:19.909Z,1.40
2018-12-30T23:23:47.902Z,1.33
2018-12-30T23:26:15.911Z,1.40
2018-12-30T23:28:43.849Z,1.17
2018-12-30T23:31:11.848Z,1.20
2018-12-30T23:33:39.780Z,1.20
2018-12-30T23:36:07.777Z,1.23
2018-12-30T23:38:35.728Z,1.20
2018-12-30T23:41:03.655Z,1.30
2018-12-30T23:43:31.579Z,1.40
2018-12-30T23:45:59.496Z,1.47
2018-12-30T23:48:27.400Z,1.13
2018-12-30T23:50:55.395Z,1.30
2018-12-30T23:53:23.377Z,1.67
2018-12-30T23:55:51.371Z,1.20
2018-12-30T23:58:19.357Z,1.27
